createdAt,value
2022-10-14T00:01:23.823Z,7.84
2022-10-14T00:04:04.223Z,7.83
2022-10-14T00:06:34.523Z,7.82
2022-10-14T00:09:07.542Z,7.81
2022-10-14T00:11:37.515Z,7.80
2022-10-14T00:14:12.585Z,7.83
2022-10-14T00:16:43.216Z,7.89
2022-10-14T00:19:12.294Z,7.87
2022-10-14T00:21:43.802Z,7.87
2022-10-14T00:24:16.509Z,7.95
2022-10-14T00:26:45.076Z,8.03
2022-10-14T00:29:19.734Z,8.13
2022-10-14T00:31:48.547Z,8.09
2022-10-14T00:34:17.116Z,7.96
2022-10-14T00:36:45.193Z,7.86
2022-10-14T00:39:17.049Z,7.77
2022-10-14T00:41:45.662Z,7.73
2022-10-14T00:44:13.686Z,7.68
2022-10-14T00:46:44.519Z,7.63
2022-10-14T00:49:25.494Z,7.58
2022-10-14T00:52:14.025Z,7.58
2022-10-14T00:54:47.521Z,7.59
2022-10-14T00:57:16.144Z,7.57
2022-10-14T00:59:50.848Z,7.55
2022-10-14T01:02:19.368Z,7.54
2022-10-14T01:04:47.316Z,7.52
2022-10-14T01:07:18.475Z,7.51
2022-10-14T01:10:05.094Z,7.50
2022-10-14T01:12:52.066Z,7.50
2022-10-14T01:15:35.817Z,7.49
2022-10-14T01:18:33.847Z,7.48
2022-10-14T01:21:26.545Z,7.50
2022-10-14T01:24:32.494Z,7.54
2022-10-14T01:27:19.112Z,7.57
2022-10-14T01:29:58.974Z,7.58
2022-10-14T01:32:49.915Z,7.57
2022-10-14T01:35:49.998Z,7.56
2022-10-14T01:38:26.079Z,7.55
2022-10-14T01:41:11.927Z,7.53
2022-10-14T01:43:43.565Z,7.53
2022-10-14T01:46:13.617Z,7.53
2022-10-14T01:48:46.940Z,7.57
2022-10-14T01:51:27.397Z,7.58
2022-10-14T01:54:08.718Z,7.60
2022-10-14T01:56:40.555Z,7.62
2022-10-14T01:59:12.561Z,7.65
2022-10-14T02:01:40.684Z,7.65
2022-10-14T02:04:19.909Z,7.65
2022-10-14T02:07:19.815Z,7.65
2022-10-14T02:10:01.430Z,7.67
2022-10-14T02:12:51.652Z,7.69
2022-10-14T02:15:31.693Z,7.70
2022-10-14T02:18:08.588Z,7.72
2022-10-14T02:20:39.658Z,7.73
2022-10-14T02:23:16.862Z,7.73
2022-10-14T02:25:47.219Z,7.75
2022-10-14T02:28:22.129Z,7.79
2022-10-14T02:30:53.934Z,7.83
2022-10-14T02:33:24.707Z,7.84
2022-10-14T02:35:54.373Z,7.85
2022-10-14T02:38:24.088Z,7.87
2022-10-14T02:40:54.441Z,7.89
2022-10-14T02:43:22.225Z,7.91
2022-10-14T02:45:50.164Z,7.91
2022-10-14T02:48:18.266Z,7.91
2022-10-14T02:50:46.097Z,7.91
2022-10-14T02:53:17.439Z,7.95
2022-10-14T02:55:46.798Z,8.61
2022-10-14T02:58:14.898Z,9.65
2022-10-14T03:00:43.143Z,10.09
2022-10-14T03:03:13.093Z,10.08
2022-10-14T03:05:41.131Z,10.10
2022-10-14T03:08:12.821Z,10.52
2022-10-14T03:10:40.967Z,10.90
2022-10-14T03:13:10.731Z,11.28
2022-10-14T03:15:42.776Z,11.60
2022-10-14T03:18:11.624Z,11.84
2022-10-14T03:20:45.864Z,11.98
2022-10-14T03:23:17.825Z,12.19
2022-10-14T03:25:47.370Z,12.35
2022-10-14T03:28:20.858Z,12.42
2022-10-14T03:31:09.879Z,12.51
2022-10-14T03:33:58.390Z,13.28
2022-10-14T03:36:27.974Z,13.18
2022-10-14T03:38:57.714Z,12.76
2022-10-14T03:41:42.201Z,12.48
2022-10-14T03:44:11.667Z,12.32
2022-10-14T03:46:40.891Z,12.09
2022-10-14T03:49:09.274Z,11.86
2022-10-14T03:51:38.288Z,11.70
2022-10-14T03:54:16.111Z,11.72
2022-10-14T03:56:45.739Z,11.79
2022-10-14T03:59:14.887Z,11.75
2022-10-14T04:01:46.585Z,11.51
2022-10-14T04:04:21.458Z,11.29
2022-10-14T04:06:49.735Z,11.14
2022-10-14T04:09:19.290Z,11.02
2022-10-14T04:11:47.991Z,10.99
2022-10-14T04:14:29.570Z,10.96
2022-10-14T04:16:58.102Z,10.84
2022-10-14T04:19:26.605Z,10.75
2022-10-14T04:21:55.830Z,10.62
2022-10-14T04:24:24.303Z,10.52
2022-10-14T04:26:57.430Z,10.48
2022-10-14T04:29:42.437Z,10.43
2022-10-14T04:32:15.863Z,10.38
2022-10-14T04:34:44.037Z,10.34
2022-10-14T04:37:13.698Z,10.34
2022-10-14T04:39:47.764Z,10.33
2022-10-14T04:42:15.978Z,10.32
2022-10-14T04:44:45.056Z,10.27
2022-10-14T04:47:13.769Z,10.23
2022-10-14T04:49:41.708Z,10.26
2022-10-14T04:52:15.024Z,10.26
2022-10-14T04:54:55.631Z,10.27
2022-10-14T04:57:34.012Z,10.30
2022-10-14T05:00:04.903Z,10.33
2022-10-14T05:02:44.748Z,10.35
2022-10-14T05:05:12.723Z,10.37
2022-10-14T05:07:41.828Z,10.40
2022-10-14T05:10:23.484Z,10.44
2022-10-14T05:12:51.561Z,10.46
2022-10-14T05:15:19.734Z,10.44
2022-10-14T05:17:57.376Z,10.43
2022-10-14T05:20:32.506Z,10.40
2022-10-14T05:23:00.653Z,10.38
2022-10-14T05:25:28.907Z,10.34
2022-10-14T05:27:57.196Z,10.31
2022-10-14T05:30:30.830Z,10.30
2022-10-14T05:33:01.885Z,10.29
2022-10-14T05:35:57.080Z,10.32
2022-10-14T05:38:19.840Z,10.33
2022-10-14T05:40:55.632Z,10.32
2022-10-14T05:43:32.009Z,10.32
2022-10-14T05:46:01.617Z,10.29
2022-10-14T05:48:32.405Z,10.27
2022-10-14T05:51:02.911Z,10.23
2022-10-14T05:53:33.156Z,10.21
2022-10-14T05:56:06.031Z,10.20
2022-10-14T05:58:34.521Z,10.19
2022-10-14T06:01:04.617Z,10.23
2022-10-14T06:03:33.668Z,10.28
2022-10-14T06:06:02.406Z,10.29
2022-10-14T06:08:31.804Z,10.31
2022-10-14T06:11:04.990Z,10.30
2022-10-14T06:13:35.507Z,10.33
2022-10-14T06:16:09.127Z,10.34
2022-10-14T06:18:38.441Z,10.36
2022-10-14T06:21:08.309Z,10.39
2022-10-14T06:23:37.188Z,10.43
2022-10-14T06:26:11.997Z,10.46
2022-10-14T06:28:40.168Z,10.50
2022-10-14T06:31:08.049Z,10.52
2022-10-14T06:33:36.270Z,10.55
2022-10-14T06:36:06.118Z,10.58
2022-10-14T06:38:34.104Z,10.63
2022-10-14T06:41:02.962Z,10.69
2022-10-14T06:43:31.109Z,10.73
2022-10-14T06:45:59.590Z,10.81
2022-10-14T06:48:27.674Z,10.87
2022-10-14T06:51:00.232Z,10.94
2022-10-14T06:53:29.772Z,11.02
2022-10-14T06:56:00.214Z,11.11
2022-10-14T06:58:29.092Z,11.21
2022-10-14T07:01:02.682Z,11.27
2022-10-14T07:03:31.785Z,11.33
2022-10-14T07:06:04.048Z,11.41
2022-10-14T07:08:32.450Z,11.44
2022-10-14T07:11:00.629Z,11.47
2022-10-14T07:13:29.182Z,11.51
2022-10-14T07:15:57.667Z,11.54
2022-10-14T07:18:25.937Z,11.57
2022-10-14T07:20:53.857Z,11.60
2022-10-14T07:23:22.186Z,11.64
2022-10-14T07:25:50.232Z,11.68
2022-10-14T07:28:18.977Z,11.70
2022-10-14T07:30:56.303Z,11.73
2022-10-14T07:33:24.517Z,11.76
2022-10-14T07:35:52.602Z,11.79
2022-10-14T07:38:21.032Z,11.83
2022-10-14T07:40:59.665Z,11.86
2022-10-14T07:43:28.525Z,11.91
2022-10-14T07:46:01.136Z,11.97
2022-10-14T07:48:32.711Z,12.05
2022-10-14T07:51:00.981Z,12.13
2022-10-14T07:53:29.203Z,12.20
2022-10-14T07:55:58.853Z,12.26
2022-10-14T07:58:29.566Z,12.33
2022-10-14T08:00:58.333Z,12.39
2022-10-14T08:03:26.911Z,12.46
2022-10-14T08:06:00.462Z,12.49
2022-10-14T08:08:29.775Z,12.54
2022-10-14T08:11:05.815Z,12.59
2022-10-14T08:13:34.446Z,12.62
2022-10-14T08:16:03.085Z,12.64
2022-10-14T08:18:30.977Z,12.67
2022-10-14T08:20:58.964Z,12.71
2022-10-14T08:23:27.458Z,12.78
2022-10-14T08:25:55.273Z,12.85
2022-10-14T08:28:23.269Z,12.89
2022-10-14T08:30:53.028Z,12.95
2022-10-14T08:33:21.623Z,13.03
2022-10-14T08:35:53.837Z,13.10
2022-10-14T08:38:25.314Z,13.16
2022-10-14T08:41:30.898Z,13.22
2022-10-14T08:44:13.455Z,13.25
2022-10-14T08:46:51.233Z,13.32
2022-10-14T08:49:27.182Z,13.39
2022-10-14T08:52:10.200Z,13.51
2022-10-14T08:54:55.662Z,13.63
2022-10-14T08:57:27.466Z,13.76
2022-10-14T08:59:55.729Z,13.87
2022-10-14T09:02:29.960Z,13.95
2022-10-14T09:05:00.180Z,14.01
2022-10-14T09:07:32.161Z,14.05
2022-10-14T09:10:07.502Z,14.11
2022-10-14T09:12:36.624Z,14.18
2022-10-14T09:15:22.577Z,14.27
2022-10-14T09:17:57.570Z,14.38
2022-10-14T09:20:28.553Z,14.46
2022-10-14T09:23:19.605Z,14.51
2022-10-14T09:26:11.835Z,14.58
2022-10-14T09:28:43.911Z,14.67
2022-10-14T09:31:15.885Z,14.74
2022-10-14T09:33:57.411Z,14.83
2022-10-14T09:36:27.307Z,14.89
2022-10-14T09:38:55.610Z,15.00
2022-10-14T09:41:30.813Z,15.10
2022-10-14T09:44:21.294Z,15.18
2022-10-14T09:47:13.381Z,15.25
2022-10-14T09:49:46.651Z,15.34
2022-10-14T09:52:24.446Z,15.43
2022-10-14T09:54:59.023Z,15.48
2022-10-14T09:57:28.464Z,15.51
2022-10-14T10:00:03.650Z,15.56
2022-10-14T10:02:43.710Z,15.60
2022-10-14T10:05:22.675Z,15.65
2022-10-14T10:08:18.322Z,15.73
2022-10-14T10:11:13.793Z,15.80
2022-10-14T10:13:47.498Z,15.89
2022-10-14T10:16:25.260Z,16.00
2022-10-14T10:18:56.297Z,16.12
2022-10-14T10:21:28.064Z,16.21
2022-10-14T10:24:01.700Z,16.34
2022-10-14T10:26:38.557Z,16.53
2022-10-14T10:29:06.745Z,16.65
2022-10-14T10:31:43.742Z,16.73
2022-10-14T10:34:51.534Z,16.80
2022-10-14T10:37:23.964Z,16.86
2022-10-14T10:40:47.685Z,16.94
2022-10-14T10:43:45.262Z,17.00
2022-10-14T10:46:36.516Z,16.96
2022-10-14T10:49:53.027Z,16.93
2022-10-14T10:52:37.157Z,16.91
2022-10-14T10:55:43.076Z,16.94
2022-10-14T10:58:30.241Z,16.98
2022-10-14T11:01:06.081Z,17.05
2022-10-14T11:03:55.337Z,17.09
2022-10-14T11:06:56.265Z,17.15
2022-10-14T11:09:54.561Z,17.20
2022-10-14T11:12:28.734Z,17.25
2022-10-14T11:15:29.056Z,17.30
2022-10-14T11:18:12.657Z,17.34
2022-10-14T11:21:05.598Z,17.40
2022-10-14T11:23:59.756Z,17.46
2022-10-14T11:26:58.871Z,17.53
2022-10-14T11:29:36.499Z,17.59
2022-10-14T11:32:14.250Z,17.63
2022-10-14T11:35:08.026Z,17.67
2022-10-14T11:37:43.400Z,17.69
2022-10-14T11:40:29.002Z,17.69
2022-10-14T11:43:21.060Z,17.71
2022-10-14T11:45:56.942Z,17.68
2022-10-14T11:49:09.640Z,17.67
2022-10-14T11:51:42.970Z,17.59
2022-10-14T11:54:35.812Z,17.56
2022-10-14T11:57:10.017Z,17.61
2022-10-14T12:00:04.773Z,17.63
2022-10-14T12:03:05.030Z,17.67
2022-10-14T12:05:59.604Z,17.71
2022-10-14T12:08:37.742Z,17.69
2022-10-14T12:11:24.990Z,17.76
2022-10-14T12:14:22.647Z,17.74
2022-10-14T12:16:54.594Z,17.58
2022-10-14T12:19:27.348Z,17.63
2022-10-14T12:22:13.293Z,17.73
2022-10-14T12:24:57.223Z,17.62
2022-10-14T12:27:28.703Z,17.46
2022-10-14T12:33:23.035Z,17.81
2022-10-14T12:36:00.174Z,17.85
2022-10-14T12:38:31.306Z,19.13
2022-10-14T12:41:38.486Z,20.90
2022-10-14T12:44:14.864Z,20.83
2022-10-14T12:46:49.726Z,19.77
2022-10-14T12:49:30.868Z,18.97
2022-10-14T12:52:05.047Z,18.35
2022-10-14T12:54:35.898Z,17.93
2022-10-14T12:57:15.439Z,18.23
2022-10-14T12:59:50.560Z,19.81
2022-10-14T13:02:32.556Z,20.00
2022-10-14T13:05:35.158Z,19.20
2022-10-14T13:08:19.464Z,18.37
2022-10-14T13:10:50.059Z,17.87
2022-10-14T13:13:58.073Z,17.76
2022-10-14T13:16:26.228Z,18.75
2022-10-14T13:19:01.912Z,19.43
2022-10-14T13:21:38.827Z,19.97
2022-10-14T13:24:06.878Z,21.19
2022-10-14T13:26:44.408Z,21.17
2022-10-14T13:29:47.696Z,20.17
2022-10-14T13:32:39.318Z,19.21
2022-10-14T13:35:38.203Z,18.57
2022-10-14T13:38:13.139Z,18.10
2022-10-14T13:40:48.341Z,17.80
2022-10-14T13:43:41.619Z,17.72
2022-10-14T13:46:12.781Z,18.53
2022-10-14T13:48:45.349Z,20.16
2022-10-14T13:51:24.453Z,21.05
2022-10-14T13:54:17.098Z,20.08
2022-10-14T13:57:19.820Z,19.17
2022-10-14T14:00:22.612Z,18.44
2022-10-14T14:02:42.861Z,17.99
2022-10-14T14:05:16.707Z,17.68
2022-10-14T14:10:39.094Z,20.68
2022-10-14T14:13:16.117Z,21.72
2022-10-14T14:15:50.740Z,20.77
2022-10-14T14:19:03.794Z,19.70
2022-10-14T14:21:36.434Z,18.79
2022-10-14T14:24:19.223Z,18.28
2022-10-14T14:26:55.901Z,17.83
2022-10-14T14:29:33.498Z,17.49
2022-10-14T14:32:07.043Z,17.39
2022-10-14T14:34:37.891Z,17.49
2022-10-14T14:40:06.151Z,17.40
2022-10-14T14:42:39.662Z,17.54
2022-10-14T14:45:19.758Z,17.74
2022-10-14T14:47:51.618Z,18.07
2022-10-14T14:50:31.619Z,18.90
2022-10-14T14:53:12.092Z,19.15
2022-10-14T14:55:42.329Z,19.10
2022-10-14T14:58:54.232Z,18.88
2022-10-14T15:01:23.306Z,18.78
2022-10-14T15:04:12.230Z,18.75
2022-10-14T15:06:59.517Z,18.72
2022-10-14T15:09:36.655Z,18.69
2022-10-14T15:12:12.975Z,18.66
2022-10-14T15:14:58.260Z,18.63
2022-10-14T15:17:35.106Z,18.59
2022-10-14T15:20:06.147Z,18.59
2022-10-14T15:22:37.522Z,18.54
2022-10-14T15:25:07.411Z,18.45
2022-10-14T15:27:36.105Z,18.18
2022-10-14T15:30:23.740Z,17.86
2022-10-14T15:32:52.970Z,17.65
2022-10-14T15:35:22.714Z,17.66
2022-10-14T15:37:51.738Z,17.74
2022-10-14T15:40:38.170Z,17.78
2022-10-14T15:43:13.919Z,17.79
2022-10-14T15:46:09.128Z,17.78
2022-10-14T15:48:46.356Z,17.69
2022-10-14T15:51:16.764Z,17.52
2022-10-14T15:53:44.944Z,17.44
2022-10-14T15:56:13.152Z,17.29
2022-10-14T15:58:41.176Z,17.27
2022-10-14T16:01:19.501Z,17.21
2022-10-14T16:03:55.213Z,17.21
2022-10-14T16:06:24.833Z,17.20
2022-10-14T16:08:53.198Z,17.20
2022-10-14T16:11:31.342Z,17.19
2022-10-14T16:13:59.491Z,17.15
2022-10-14T16:16:34.413Z,17.14
2022-10-14T16:19:02.549Z,17.13
2022-10-14T16:21:31.237Z,17.11
2022-10-14T16:23:59.778Z,17.08
2022-10-14T16:26:27.986Z,17.06
2022-10-14T16:28:56.008Z,17.05
2022-10-14T16:31:24.168Z,17.01
2022-10-14T16:33:55.126Z,16.99
2022-10-14T16:36:25.029Z,16.99
2022-10-14T16:38:54.984Z,16.95
2022-10-14T16:41:22.959Z,16.88
2022-10-14T16:43:50.752Z,16.83
2022-10-14T16:46:18.702Z,16.78
2022-10-14T16:48:49.785Z,16.75
2022-10-14T16:51:17.731Z,16.75
2022-10-14T16:53:47.080Z,16.75
2022-10-14T16:56:40.927Z,16.73
2022-10-14T16:59:12.809Z,16.69
2022-10-14T17:01:41.130Z,16.65
2022-10-14T17:04:14.054Z,16.59
2022-10-14T17:06:44.280Z,16.52
2022-10-14T17:09:17.627Z,16.50
2022-10-14T17:11:46.511Z,16.45
2022-10-14T17:14:16.995Z,16.43
2022-10-14T17:16:47.340Z,16.39
2022-10-14T17:19:16.230Z,16.34
2022-10-14T17:21:44.580Z,16.33
2022-10-14T17:24:17.143Z,16.34
2022-10-14T17:26:46.897Z,16.38
2022-10-14T17:29:15.191Z,16.39
2022-10-14T17:31:46.956Z,16.37
2022-10-14T17:34:15.666Z,16.34
2022-10-14T17:36:44.022Z,16.35
2022-10-14T17:39:16.471Z,16.40
2022-10-14T17:41:49.458Z,16.40
2022-10-14T17:44:17.426Z,16.36
2022-10-14T17:46:45.816Z,16.36
2022-10-14T17:49:14.446Z,16.37
2022-10-14T17:51:42.802Z,16.37
2022-10-14T17:54:12.263Z,16.34
2022-10-14T17:56:41.090Z,16.32
2022-10-14T17:59:14.262Z,16.29
2022-10-14T18:02:01.561Z,16.28
2022-10-14T18:04:32.683Z,16.26
2022-10-14T18:07:03.500Z,16.21
2022-10-14T18:09:31.331Z,16.16
2022-10-14T18:12:08.646Z,16.13
2022-10-14T18:14:40.683Z,16.11
2022-10-14T18:17:11.104Z,16.08
2022-10-14T18:19:40.960Z,16.05
2022-10-14T18:22:11.115Z,16.04
2022-10-14T18:24:39.543Z,16.03
2022-10-14T18:27:07.774Z,16.00
2022-10-14T18:29:37.091Z,15.96
2022-10-14T18:32:05.803Z,15.91
2022-10-14T18:34:34.183Z,15.87
2022-10-14T18:37:02.300Z,15.84
2022-10-14T18:39:30.646Z,15.79
2022-10-14T18:41:58.560Z,16.17
2022-10-14T18:44:26.782Z,16.43
2022-10-14T18:46:55.064Z,16.16
2022-10-14T18:49:22.845Z,15.80
2022-10-14T18:51:50.844Z,15.53
2022-10-14T18:54:21.574Z,15.50
2022-10-14T18:56:49.434Z,15.45
2022-10-14T18:59:20.443Z,15.40
2022-10-14T19:01:52.147Z,15.21
2022-10-14T19:04:23.034Z,15.02
2022-10-14T19:06:51.155Z,15.03
2022-10-14T19:09:22.393Z,14.90
2022-10-14T19:11:51.843Z,14.89
2022-10-14T19:14:20.881Z,14.85
2022-10-14T19:16:49.793Z,14.85
2022-10-14T19:19:20.203Z,14.97
2022-10-14T19:21:50.993Z,15.08
2022-10-14T19:24:22.564Z,15.14
2022-10-14T19:26:50.832Z,15.20
2022-10-14T19:29:18.560Z,15.26
2022-10-14T19:31:46.608Z,15.29
2022-10-14T19:34:16.013Z,15.31
2022-10-14T19:36:44.633Z,15.33
2022-10-14T19:39:16.060Z,15.34
2022-10-14T19:41:46.351Z,15.36
2022-10-14T19:44:16.264Z,15.39
2022-10-14T19:46:45.626Z,15.40
2022-10-14T19:49:14.966Z,15.45
2022-10-14T19:51:44.093Z,15.47
2022-10-14T19:54:12.784Z,15.50
2022-10-14T19:56:41.084Z,15.51
2022-10-14T19:59:10.124Z,15.47
2022-10-14T20:01:38.281Z,15.42
2022-10-14T20:04:07.109Z,15.37
2022-10-14T20:06:38.104Z,15.31
2022-10-14T20:09:07.324Z,15.26
2022-10-14T20:11:36.196Z,15.20
2022-10-14T20:14:04.247Z,15.16
2022-10-14T20:16:32.586Z,15.11
2022-10-14T20:19:01.031Z,15.08
2022-10-14T20:21:30.808Z,15.04
2022-10-14T20:23:59.613Z,15.00
2022-10-14T20:26:28.044Z,14.98
2022-10-14T20:28:56.465Z,14.96
2022-10-14T20:31:25.609Z,14.91
2022-10-14T20:33:56.069Z,14.87
2022-10-14T20:36:24.882Z,14.84
2022-10-14T20:38:52.954Z,14.81
2022-10-14T20:41:27.444Z,14.78
2022-10-14T20:43:58.703Z,14.76
2022-10-14T20:46:26.899Z,14.72
2022-10-14T20:48:56.698Z,14.67
2022-10-14T20:51:25.086Z,14.61
2022-10-14T20:54:01.909Z,14.53
2022-10-14T20:56:33.600Z,14.47
2022-10-14T20:59:05.042Z,14.43
2022-10-14T21:01:35.223Z,14.41
2022-10-14T21:04:05.914Z,14.36
2022-10-14T21:06:34.904Z,14.30
2022-10-14T21:09:03.160Z,14.25
2022-10-14T21:11:32.066Z,14.22
2022-10-14T21:14:01.076Z,14.19
2022-10-14T21:16:29.670Z,14.17
2022-10-14T21:19:00.934Z,14.16
2022-10-14T21:21:33.016Z,14.17
2022-10-14T21:24:01.005Z,14.18
2022-10-14T21:26:30.406Z,14.16
2022-10-14T21:29:02.390Z,14.12
2022-10-14T21:31:31.702Z,14.12
2022-10-14T21:34:05.697Z,14.07
2022-10-14T21:36:35.748Z,14.03
2022-10-14T21:39:13.006Z,14.00
2022-10-14T21:41:42.121Z,13.96
2022-10-14T21:44:15.697Z,13.95
2022-10-14T21:46:43.976Z,13.91
2022-10-14T21:49:13.157Z,13.90
2022-10-14T21:51:41.289Z,13.89
2022-10-14T21:54:12.508Z,13.87
2022-10-14T21:56:40.855Z,13.87
2022-10-14T21:59:10.165Z,13.87
2022-10-14T22:01:38.511Z,13.88
2022-10-14T22:04:06.882Z,13.87
2022-10-14T22:06:36.346Z,13.90
2022-10-14T22:09:07.692Z,13.90
2022-10-14T22:11:41.413Z,13.89
2022-10-14T22:14:17.460Z,13.90
2022-10-14T22:16:46.982Z,13.92
2022-10-14T22:19:15.583Z,13.95
2022-10-14T22:21:46.362Z,13.97
2022-10-14T22:24:14.658Z,13.95
2022-10-14T22:26:42.936Z,13.90
2022-10-14T22:29:14.583Z,13.86
2022-10-14T22:31:42.451Z,13.81
2022-10-14T22:34:12.567Z,13.77
2022-10-14T22:36:41.306Z,13.72
2022-10-14T22:39:14.867Z,13.67
2022-10-14T22:41:43.333Z,13.63
2022-10-14T22:44:11.888Z,13.59
2022-10-14T22:46:40.939Z,13.58
2022-10-14T22:49:09.133Z,13.56
2022-10-14T22:51:43.367Z,13.53
2022-10-14T22:54:11.567Z,13.48
2022-10-14T22:56:39.891Z,13.47
2022-10-14T22:59:10.311Z,13.48
2022-10-14T23:01:40.107Z,13.48
2022-10-14T23:04:08.808Z,13.47
2022-10-14T23:06:37.287Z,13.47
2022-10-14T23:09:05.650Z,13.47
2022-10-14T23:11:33.451Z,13.46
2022-10-14T23:14:04.586Z,13.46
2022-10-14T23:16:36.175Z,13.46
2022-10-14T23:19:04.483Z,13.44
2022-10-14T23:21:34.915Z,13.42
2022-10-14T23:24:09.060Z,13.39
2022-10-14T23:26:37.803Z,13.37
2022-10-14T23:29:10.008Z,13.35
2022-10-14T23:31:39.481Z,13.29
2022-10-14T23:34:11.724Z,13.26
2022-10-14T23:36:39.636Z,13.24
2022-10-14T23:39:07.913Z,13.22
2022-10-14T23:41:35.915Z,13.20
2022-10-14T23:44:03.915Z,13.17
2022-10-14T23:46:32.088Z,13.13
2022-10-14T23:49:24.934Z,13.08
2022-10-14T23:51:51.212Z,13.01
2022-10-14T23:54:19.590Z,12.96
2022-10-14T23:56:47.649Z,12.92
2022-10-14T23:59:15.442Z,12.89
